createdAt,value
2022-11-24T00:00:50.158Z,9.462989
2022-11-24T00:01:50.167Z,9.462985
2022-11-24T00:02:50.249Z,9.462981
2022-11-24T00:03:50.111Z,9.463002
2022-11-24T00:04:50.117Z,9.462991
2022-11-24T00:05:50.108Z,9.463016
2022-11-24T00:06:50.079Z,9.462978
2022-11-24T00:07:50.484Z,9.462968
2022-11-24T00:08:50.159Z,9.463017
2022-11-24T00:09:50.059Z,9.462914
2022-11-24T00:10:50.095Z,9.462937
2022-11-24T00:11:50.522Z,9.463127
2022-11-24T00:12:50.036Z,9.463029
2022-11-24T00:13:50.108Z,9.462890
2022-11-24T00:14:50.042Z,9.462908
2022-11-24T00:15:50.028Z,9.462869
2022-11-24T00:16:50.206Z,9.462863
2022-11-24T00:17:51.189Z,9.462969
2022-11-24T00:18:50.004Z,9.462958
2022-11-24T00:19:49.993Z,9.462936
2022-11-24T00:20:50.023Z,9.462955
2022-11-24T00:21:49.980Z,9.462961
2022-11-24T00:22:51.433Z,9.462967
2022-11-24T00:23:49.972Z,9.462993
2022-11-24T00:24:49.963Z,9.462960
2022-11-24T00:25:49.967Z,9.462976
2022-11-24T00:26:50.390Z,9.462934
2022-11-24T00:27:49.935Z,9.462966
2022-11-24T00:28:49.963Z,9.462973
2022-11-24T00:29:49.928Z,9.462980
2022-11-24T00:30:50.046Z,9.462977
2022-11-24T00:31:50.558Z,9.462952
2022-11-24T00:32:50.890Z,9.462942
2022-11-24T00:33:49.897Z,9.462906
2022-11-24T00:34:49.902Z,9.463002
2022-11-24T00:35:49.889Z,9.462960
2022-11-24T00:36:49.905Z,9.462883
2022-11-24T00:37:49.883Z,9.462902
2022-11-24T00:38:49.873Z,9.462840
2022-11-24T00:39:49.860Z,9.462821
2022-11-24T00:40:49.862Z,9.462871
2022-11-24T00:41:49.845Z,9.462881
2022-11-24T00:42:49.848Z,9.462889
2022-11-24T00:43:49.863Z,9.462900
2022-11-24T00:44:49.830Z,9.462930
2022-11-24T00:45:49.930Z,9.462926
2022-11-24T00:46:49.992Z,9.462889
2022-11-24T00:47:49.813Z,9.462908
2022-11-24T00:48:49.817Z,9.462955
2022-11-24T00:49:49.844Z,9.462854
2022-11-24T00:50:49.790Z,9.462865
2022-11-24T00:51:49.785Z,9.462989
2022-11-24T00:52:49.808Z,9.462992
2022-11-24T00:53:49.768Z,9.462994
2022-11-24T00:54:50.233Z,9.462967
2022-11-24T00:55:49.766Z,9.463034
2022-11-24T00:56:49.752Z,9.463059
2022-11-24T00:57:49.755Z,9.463083
2022-11-24T00:58:49.748Z,9.462880
2022-11-24T00:59:49.757Z,9.463007
2022-11-24T01:00:49.766Z,9.462955
2022-11-24T01:01:49.776Z,9.462709
2022-11-24T01:02:49.777Z,9.462893
2022-11-24T01:03:49.724Z,9.462873
2022-11-24T01:04:49.750Z,9.462917
2022-11-24T01:05:49.698Z,9.462858
2022-11-24T01:06:49.703Z,9.462893
2022-11-24T01:07:49.805Z,9.462850
2022-11-24T01:08:49.700Z,9.462889
2022-11-24T01:09:49.686Z,9.462894
2022-11-24T01:10:49.717Z,9.462921
2022-11-24T01:11:50.675Z,9.462884
2022-11-24T01:12:49.663Z,9.462753
2022-11-24T01:13:49.643Z,9.462787
2022-11-24T01:14:49.643Z,9.462878
2022-11-24T01:15:49.657Z,9.462821
2022-11-24T01:16:49.642Z,9.462913
2022-11-24T01:17:50.635Z,9.462922
2022-11-24T01:18:49.643Z,9.462876
2022-11-24T01:19:49.607Z,9.462817
2022-11-24T01:20:49.603Z,9.462922
2022-11-24T01:21:49.977Z,9.462865
2022-11-24T01:22:49.603Z,9.462867
2022-11-24T01:23:49.579Z,9.462888
2022-11-24T01:24:51.380Z,9.462898
2022-11-24T01:25:49.568Z,9.462904
2022-11-24T01:26:49.564Z,9.462854
2022-11-24T01:27:49.981Z,9.462954
2022-11-24T01:28:49.547Z,9.462975
2022-11-24T01:29:49.532Z,9.462912
2022-11-24T01:30:49.645Z,9.462893
2022-11-24T01:31:49.535Z,9.462896
2022-11-24T01:32:49.521Z,9.463187
2022-11-24T01:33:49.933Z,9.463106
2022-11-24T01:34:49.510Z,9.463043
2022-11-24T01:35:49.497Z,9.462946
2022-11-24T01:36:49.493Z,9.462976
2022-11-24T01:37:49.486Z,9.462980
2022-11-24T01:38:49.482Z,9.462808
2022-11-24T01:39:51.381Z,9.462766
2022-11-24T01:40:49.493Z,9.462803
2022-11-24T01:41:49.475Z,9.462934
2022-11-24T01:42:49.457Z,9.462963
2022-11-24T01:43:49.446Z,9.462964
2022-11-24T01:44:50.422Z,9.463034
2022-11-24T01:45:49.443Z,9.462989
2022-11-24T01:46:49.427Z,9.462875
2022-11-24T01:47:49.421Z,9.463001
2022-11-24T01:48:49.420Z,9.462984
2022-11-24T01:49:50.994Z,9.463024
2022-11-24T01:50:49.397Z,9.463131
2022-11-24T01:51:49.394Z,9.463001
2022-11-24T01:52:49.398Z,9.463058
2022-11-24T01:53:49.377Z,9.463118
2022-11-24T01:54:49.413Z,9.462893
2022-11-24T01:55:49.372Z,9.462792
2022-11-24T01:56:49.826Z,9.462700
2022-11-24T01:57:49.358Z,9.462943
2022-11-24T01:58:49.344Z,9.462973
2022-11-24T01:59:49.342Z,9.463125
2022-11-24T02:00:49.350Z,9.463028
2022-11-24T02:01:49.882Z,9.462943
2022-11-24T02:02:49.400Z,9.462837
2022-11-24T02:03:49.326Z,9.462948
2022-11-24T02:04:49.317Z,9.463014
2022-11-24T02:05:49.344Z,9.463006
2022-11-24T02:06:49.309Z,9.462881
2022-11-24T02:07:50.175Z,9.462910
2022-11-24T02:08:49.281Z,9.462987
2022-11-24T02:09:49.276Z,9.462976
2022-11-24T02:10:49.273Z,9.462982
2022-11-24T02:11:49.259Z,9.462933
2022-11-24T02:12:49.315Z,9.462985
2022-11-24T02:13:49.250Z,9.463032
2022-11-24T02:14:49.256Z,9.463058
2022-11-24T02:15:49.284Z,9.462988
2022-11-24T02:16:49.230Z,9.462966
2022-11-24T02:17:49.231Z,9.463005
2022-11-24T02:18:49.990Z,9.463043
2022-11-24T02:19:49.232Z,9.463031
2022-11-24T02:20:49.256Z,9.463002
2022-11-24T02:21:49.255Z,9.462912
2022-11-24T02:22:49.198Z,9.463013
2022-11-24T02:23:49.189Z,9.463032
2022-11-24T02:24:49.184Z,9.462873
2022-11-24T02:25:49.188Z,9.462983
2022-11-24T02:26:49.181Z,9.462913
2022-11-24T02:27:53.722Z,9.462991
2022-11-24T02:28:50.308Z,9.463006
2022-11-24T02:29:49.165Z,9.462986
2022-11-24T02:30:49.248Z,9.462954
2022-11-24T02:31:51.019Z,9.463001
2022-11-24T02:32:49.147Z,9.462979
2022-11-24T02:33:49.135Z,9.462958
2022-11-24T02:34:49.117Z,9.462940
2022-11-24T02:35:49.107Z,9.462889
2022-11-24T02:36:49.108Z,9.462883
2022-11-24T02:37:49.117Z,9.462911
2022-11-24T02:38:49.100Z,9.462961
2022-11-24T02:39:49.093Z,9.462982
2022-11-24T02:40:49.085Z,9.462900
2022-11-24T02:41:49.070Z,9.463070
2022-11-24T02:42:49.938Z,9.463080
2022-11-24T02:43:49.067Z,9.463012
2022-11-24T02:44:49.075Z,9.462899
2022-11-24T02:45:49.047Z,9.462909
2022-11-24T02:46:49.039Z,9.462929
2022-11-24T02:47:50.402Z,9.462906
2022-11-24T02:48:49.032Z,9.462947
2022-11-24T02:49:49.018Z,9.462925
2022-11-24T02:50:49.022Z,9.462981
2022-11-24T02:51:49.012Z,9.463007
2022-11-24T02:52:49.001Z,9.463035
2022-11-24T02:53:49.006Z,9.463039
2022-11-24T02:54:49.008Z,9.463023
2022-11-24T02:55:50.992Z,9.463058
2022-11-24T02:56:48.977Z,9.463032
2022-11-24T02:57:48.976Z,9.462984
2022-11-24T02:58:48.962Z,9.462970
2022-11-24T02:59:49.615Z,9.462949
2022-11-24T03:00:49.023Z,9.462984
2022-11-24T03:01:49.023Z,9.463028
2022-11-24T03:02:49.024Z,9.462894
2022-11-24T03:03:48.935Z,9.462919
2022-11-24T03:04:48.921Z,9.462976
2022-11-24T03:05:48.917Z,9.462975
2022-11-24T03:06:48.968Z,9.462958
2022-11-24T03:07:48.976Z,9.463002
2022-11-24T03:08:48.920Z,9.462998
2022-11-24T03:09:48.894Z,9.462995
2022-11-24T03:10:48.882Z,9.462960
2022-11-24T03:11:48.908Z,9.462975
2022-11-24T03:12:48.870Z,9.462919
2022-11-24T03:13:48.894Z,9.462966
2022-11-24T03:14:48.863Z,9.462967
2022-11-24T03:15:48.927Z,9.462991
2022-11-24T03:16:48.895Z,9.463011
2022-11-24T03:17:48.842Z,9.463021
2022-11-24T03:18:48.834Z,9.463008
2022-11-24T03:19:49.580Z,9.462945
2022-11-24T03:20:48.821Z,9.463009
2022-11-24T03:21:48.835Z,9.462998
2022-11-24T03:22:48.813Z,9.462965
2022-11-24T03:23:48.805Z,9.463017
2022-11-24T03:24:49.839Z,9.463022
2022-11-24T03:25:49.383Z,9.463011
2022-11-24T03:26:48.781Z,9.463017
2022-11-24T03:27:48.788Z,9.462984
2022-11-24T03:28:48.766Z,9.463002
2022-11-24T03:29:48.916Z,9.463009
2022-11-24T03:30:48.869Z,9.462986
2022-11-24T03:31:48.749Z,9.463043
2022-11-24T03:32:48.771Z,9.463024
2022-11-24T03:33:48.741Z,9.463020
2022-11-24T03:34:48.729Z,9.463068
2022-11-24T03:35:48.733Z,9.463023
2022-11-24T03:36:48.851Z,9.463018
2022-11-24T03:37:51.410Z,9.462986
2022-11-24T03:38:50.122Z,9.462992
2022-11-24T03:39:48.703Z,9.462996
2022-11-24T03:40:48.689Z,9.463095
2022-11-24T03:41:48.698Z,9.463095
2022-11-24T03:42:49.375Z,9.463054
2022-11-24T03:43:48.675Z,9.462976
2022-11-24T03:44:48.697Z,9.462944
2022-11-24T03:45:48.660Z,9.462958
2022-11-24T03:46:48.731Z,9.463002
2022-11-24T03:47:48.658Z,9.463006
2022-11-24T03:48:48.673Z,9.462993
2022-11-24T03:49:48.640Z,9.463007
2022-11-24T03:50:48.649Z,9.462967
2022-11-24T03:51:48.704Z,9.462982
2022-11-24T03:52:48.618Z,9.462985
2022-11-24T03:53:48.612Z,9.463017
2022-11-24T03:54:48.603Z,9.462973
2022-11-24T03:55:49.294Z,9.462975
2022-11-24T03:56:48.588Z,9.462939
2022-11-24T03:57:48.577Z,9.462918
2022-11-24T03:58:48.568Z,9.462936
2022-11-24T03:59:48.571Z,9.463013
2022-11-24T04:00:48.572Z,9.463043
2022-11-24T04:01:48.632Z,9.463060
2022-11-24T04:02:48.627Z,9.463031
2022-11-24T04:03:48.539Z,9.463003
2022-11-24T04:04:49.892Z,9.463001
2022-11-24T04:05:50.606Z,9.463051
2022-11-24T04:06:48.520Z,9.463045
2022-11-24T04:07:48.575Z,9.463003
2022-11-24T04:08:48.520Z,9.462967
2022-11-24T04:09:48.510Z,9.462996
2022-11-24T04:10:48.497Z,9.462940
2022-11-24T04:11:50.639Z,9.462970
2022-11-24T04:12:48.483Z,9.463008
2022-11-24T04:13:48.581Z,9.462848
2022-11-24T04:14:48.469Z,9.462973
2022-11-24T04:15:48.528Z,9.463031
2022-11-24T04:16:48.458Z,9.462993
2022-11-24T04:17:49.155Z,9.463022
2022-11-24T04:18:48.438Z,9.463062
2022-11-24T04:19:48.892Z,9.463065
2022-11-24T04:20:48.447Z,9.463066
2022-11-24T04:21:49.397Z,9.463037
2022-11-24T04:22:48.415Z,9.463028
2022-11-24T04:23:48.406Z,9.463052
2022-11-24T04:24:48.406Z,9.463033
2022-11-24T04:25:48.396Z,9.463040
2022-11-24T04:26:48.569Z,9.463060
2022-11-24T04:27:48.388Z,9.463051
2022-11-24T04:28:48.377Z,9.463074
2022-11-24T04:29:48.384Z,9.463048
2022-11-24T04:30:48.358Z,9.463099
2022-11-24T04:31:48.422Z,9.463118
2022-11-24T04:32:48.350Z,9.463101
2022-11-24T04:33:48.342Z,9.463079
2022-11-24T04:34:48.342Z,9.463074
2022-11-24T04:35:48.452Z,9.463103
2022-11-24T04:36:48.351Z,9.463072
2022-11-24T04:37:48.310Z,9.463080
2022-11-24T04:39:23.588Z,9.463082
2022-11-24T04:39:49.331Z,9.463118
2022-11-24T04:40:48.295Z,9.463117
2022-11-24T04:41:48.297Z,9.463113
2022-11-24T04:42:48.288Z,9.463078
2022-11-24T04:43:48.949Z,9.463036
2022-11-24T04:44:48.267Z,9.463035
2022-11-24T04:45:49.316Z,9.463033
2022-11-24T04:46:48.380Z,9.463042
2022-11-24T04:47:48.268Z,9.463007
2022-11-24T04:48:48.256Z,9.463015
2022-11-24T04:49:48.230Z,9.462859
2022-11-24T04:50:48.227Z,9.462909
2022-11-24T04:51:48.662Z,9.462968
2022-11-24T04:52:48.237Z,9.462968
2022-11-24T04:53:48.211Z,9.463078
2022-11-24T04:54:49.424Z,9.463056
2022-11-24T04:55:48.216Z,9.463128
2022-11-24T04:56:48.426Z,9.463072
2022-11-24T04:57:48.174Z,9.463058
2022-11-24T04:58:48.175Z,9.463050
2022-11-24T04:59:48.175Z,9.463065
2022-11-24T05:00:48.483Z,9.463056
2022-11-24T05:01:48.192Z,9.463088
2022-11-24T05:02:48.144Z,9.463071
2022-11-24T05:03:48.201Z,9.463088
2022-11-24T05:04:48.203Z,9.463098
2022-11-24T05:05:48.794Z,9.463088
2022-11-24T05:06:48.124Z,9.463098
2022-11-24T05:07:48.325Z,9.463098
2022-11-24T05:08:48.152Z,9.463091
2022-11-24T05:09:59.217Z,9.463112
2022-11-24T05:10:49.100Z,9.463104
2022-11-24T05:11:48.088Z,9.463084
2022-11-24T05:12:51.261Z,9.463085
2022-11-24T05:13:48.069Z,9.463096
2022-11-24T05:14:48.082Z,9.463119
2022-11-24T05:15:48.108Z,9.463082
2022-11-24T05:16:48.064Z,9.463092
2022-11-24T05:17:48.791Z,9.463134
2022-11-24T05:18:48.059Z,9.463145
2022-11-24T05:19:48.031Z,9.463100
2022-11-24T05:20:48.044Z,9.463096
2022-11-24T05:21:48.017Z,9.463139
2022-11-24T05:22:48.037Z,9.463115
2022-11-24T05:23:48.019Z,9.463055
2022-11-24T05:24:48.039Z,9.463102
2022-11-24T05:25:48.970Z,9.463091
2022-11-24T05:26:48.743Z,9.463099
2022-11-24T05:27:47.989Z,9.463049
2022-11-24T05:28:47.995Z,9.463103
2022-11-24T05:29:47.962Z,9.463112
2022-11-24T05:30:48.489Z,9.463119
2022-11-24T05:31:48.022Z,9.463133
2022-11-24T05:32:48.673Z,9.463157
2022-11-24T05:33:47.951Z,9.463099
2022-11-24T05:34:47.959Z,9.463120
2022-11-24T05:35:47.923Z,9.463055
2022-11-24T05:36:48.423Z,9.463077
2022-11-24T05:37:47.914Z,9.463108
2022-11-24T05:38:47.910Z,9.463042
2022-11-24T05:39:47.906Z,9.462914
2022-11-24T05:40:47.938Z,9.463064
2022-11-24T05:41:47.893Z,9.462933
2022-11-24T05:42:48.525Z,9.463043
2022-11-24T05:43:47.867Z,9.463163
2022-11-24T05:44:47.884Z,9.463106
2022-11-24T05:45:47.866Z,9.462955
2022-11-24T05:46:48.084Z,9.463059
2022-11-24T05:47:47.864Z,9.463118
2022-11-24T05:48:47.859Z,9.463048
2022-11-24T05:49:47.827Z,9.463003
2022-11-24T05:50:47.833Z,9.462981
2022-11-24T05:51:47.828Z,9.462950
2022-11-24T05:52:47.869Z,9.462909
2022-11-24T05:53:47.823Z,9.462993
2022-11-24T05:54:48.040Z,9.462969
2022-11-24T05:55:47.788Z,9.462958
2022-11-24T05:56:47.830Z,9.462982
2022-11-24T05:57:47.779Z,9.462969
2022-11-24T05:58:48.839Z,9.463011
2022-11-24T05:59:47.781Z,9.462984
2022-11-24T06:00:47.764Z,9.463008
2022-11-24T06:01:48.901Z,9.462969
2022-11-24T06:02:47.867Z,9.462977
2022-11-24T06:03:47.743Z,9.462981
2022-11-24T06:04:48.263Z,9.462927
2022-11-24T06:05:47.744Z,9.463007
2022-11-24T06:06:47.724Z,9.462979
2022-11-24T06:07:47.743Z,9.462959
2022-11-24T06:08:48.487Z,9.462953
2022-11-24T06:09:50.362Z,9.462997
2022-11-24T06:10:47.710Z,9.463044
2022-11-24T06:11:48.245Z,9.462999
2022-11-24T06:12:47.740Z,9.463069
2022-11-24T06:13:47.756Z,9.463083
2022-11-24T06:15:07.192Z,9.462972
2022-11-24T06:15:47.686Z,9.462976
2022-11-24T06:16:53.819Z,9.462978
2022-11-24T06:17:47.655Z,9.463016
2022-11-24T06:18:47.653Z,9.462973
2022-11-24T06:19:47.655Z,9.463007
2022-11-24T06:21:09.162Z,9.462969
2022-11-24T06:21:48.644Z,9.462960
2022-11-24T06:22:48.073Z,9.462950
2022-11-24T06:23:47.628Z,9.462945
2022-11-24T06:24:47.615Z,9.462980
2022-11-24T06:25:51.496Z,9.463017
2022-11-24T06:26:55.554Z,9.462967
2022-11-24T06:27:47.587Z,9.462981
2022-11-24T06:28:47.610Z,9.462995
2022-11-24T06:29:47.585Z,9.462981
2022-11-24T06:30:47.569Z,9.462950
2022-11-24T06:31:47.660Z,9.462955
2022-11-24T06:32:49.610Z,9.463007
2022-11-24T06:33:47.570Z,9.463022
2022-11-24T06:34:47.527Z,9.463013
2022-11-24T06:35:47.533Z,9.462996
2022-11-24T06:36:47.537Z,9.462997
2022-11-24T06:37:49.175Z,9.463035
2022-11-24T06:38:47.519Z,9.463008
2022-11-24T06:39:47.621Z,9.463103
2022-11-24T06:40:47.490Z,9.462991
2022-11-24T06:41:47.509Z,9.463124
2022-11-24T06:42:48.744Z,9.463056
2022-11-24T06:43:48.737Z,9.463056
2022-11-24T06:44:48.370Z,9.462994
2022-11-24T06:45:47.513Z,9.462956
2022-11-24T06:46:47.486Z,9.462729
2022-11-24T06:47:47.484Z,9.462913
2022-11-24T06:48:47.453Z,9.463016
2022-11-24T06:49:47.444Z,9.463013
2022-11-24T06:50:47.443Z,9.463028
2022-11-24T06:51:49.043Z,9.462989
2022-11-24T06:52:47.417Z,9.463013
2022-11-24T06:53:47.431Z,9.462914
2022-11-24T06:54:47.412Z,9.462907
2022-11-24T06:55:47.407Z,9.462953
2022-11-24T06:56:47.431Z,9.462996
2022-11-24T06:57:47.427Z,9.463031
2022-11-24T06:58:47.410Z,9.463030
2022-11-24T06:59:47.397Z,9.463038
2022-11-24T07:00:47.445Z,9.462968
2022-11-24T07:01:47.396Z,9.462942
2022-11-24T07:02:47.417Z,9.463008
2022-11-24T07:03:48.799Z,9.462982
2022-11-24T07:04:47.358Z,9.462976
2022-11-24T07:05:47.357Z,9.462954
2022-11-24T07:06:47.353Z,9.463007
2022-11-24T07:07:47.403Z,9.462962
2022-11-24T07:08:47.906Z,9.462969
2022-11-24T07:09:47.325Z,9.462954
2022-11-24T07:10:47.319Z,9.462971
2022-11-24T07:11:47.939Z,9.462982
2022-11-24T07:12:47.291Z,9.463002
2022-11-24T07:13:47.308Z,9.462974
2022-11-24T07:14:47.281Z,9.462912
2022-11-24T07:15:47.293Z,9.463013
2022-11-24T07:16:47.483Z,9.462982
2022-11-24T07:17:47.269Z,9.463019
2022-11-24T07:18:47.266Z,9.463031
2022-11-24T07:19:47.268Z,9.463025
2022-11-24T07:20:47.241Z,9.463073
2022-11-24T07:21:47.243Z,9.463008
2022-11-24T07:22:47.662Z,9.462999
2022-11-24T07:23:47.248Z,9.462985
2022-11-24T07:24:47.538Z,9.463016
2022-11-24T07:25:47.602Z,9.463001
2022-11-24T07:26:47.203Z,9.463000
2022-11-24T07:27:48.071Z,9.463002
2022-11-24T07:28:47.205Z,9.463013
2022-11-24T07:29:47.248Z,9.463001
2022-11-24T07:30:47.184Z,9.462982
2022-11-24T07:31:47.225Z,9.462989
2022-11-24T07:32:47.198Z,9.463019
2022-11-24T07:33:47.165Z,9.462970
2022-11-24T07:34:47.246Z,9.463041
2022-11-24T07:35:47.146Z,9.463025
2022-11-24T07:36:47.147Z,9.462972
2022-11-24T07:37:47.138Z,9.462960
2022-11-24T07:38:47.615Z,9.462972
2022-11-24T07:39:47.133Z,9.463044
2022-11-24T07:40:47.110Z,9.462947
2022-11-24T07:41:47.124Z,9.463024
2022-11-24T07:42:47.093Z,9.462976
2022-11-24T07:43:47.466Z,9.463014
2022-11-24T07:44:47.089Z,9.463036
2022-11-24T07:45:47.136Z,9.462958
2022-11-24T07:46:47.084Z,9.462991
2022-11-24T07:47:47.087Z,9.463069
2022-11-24T07:48:47.088Z,9.463015
2022-11-24T07:49:47.067Z,9.463038
2022-11-24T07:50:49.953Z,9.463138
2022-11-24T07:51:48.065Z,9.463032
2022-11-24T07:52:47.053Z,9.462920
2022-11-24T07:53:47.048Z,9.463006
2022-11-24T07:54:47.010Z,9.463027
2022-11-24T07:55:47.095Z,9.463084
2022-11-24T07:56:47.010Z,9.462998
2022-11-24T07:57:47.018Z,9.462985
2022-11-24T07:58:51.410Z,9.463048
2022-11-24T07:59:48.015Z,9.463106
2022-11-24T08:00:47.018Z,9.463059
2022-11-24T08:01:49.566Z,9.463027
2022-11-24T08:02:46.958Z,9.463203
2022-11-24T08:03:47.118Z,9.463289
2022-11-24T08:04:46.990Z,9.463101
2022-11-24T08:06:15.971Z,9.463076
2022-11-24T08:06:47.995Z,9.463112
2022-11-24T08:07:47.092Z,9.463078
2022-11-24T08:08:46.923Z,9.463083
2022-11-24T08:09:46.919Z,9.463080
2022-11-24T08:10:46.913Z,9.463058
2022-11-24T08:11:46.919Z,9.463022
2022-11-24T08:12:46.896Z,9.463038
2022-11-24T08:13:46.918Z,9.463098
2022-11-24T08:14:46.888Z,9.463174
2022-11-24T08:15:46.894Z,9.463046
2022-11-24T08:16:47.053Z,9.463175
2022-11-24T08:17:50.338Z,9.463081
2022-11-24T08:18:46.866Z,9.463141
2022-11-24T08:19:46.902Z,9.463173
2022-11-24T08:20:46.872Z,9.463008
2022-11-24T08:21:46.853Z,9.463115
2022-11-24T08:22:46.826Z,9.463179
2022-11-24T08:23:47.761Z,9.463144
2022-11-24T08:24:46.839Z,9.463009
2022-11-24T08:25:46.825Z,9.462971
2022-11-24T08:26:46.885Z,9.463082
2022-11-24T08:27:46.802Z,9.462871
2022-11-24T08:28:46.805Z,9.462963
2022-11-24T08:29:46.801Z,9.462900
2022-11-24T08:30:46.789Z,9.462888
2022-11-24T08:31:46.885Z,9.462969
2022-11-24T08:32:46.765Z,9.463002
2022-11-24T08:33:46.804Z,9.462962
2022-11-24T08:34:46.889Z,9.462946
2022-11-24T08:35:46.758Z,9.462935
2022-11-24T08:36:46.805Z,9.463031
2022-11-24T08:37:46.735Z,9.462981
2022-11-24T08:38:46.741Z,9.462922
2022-11-24T08:39:46.781Z,9.463072
2022-11-24T08:40:46.707Z,9.463027
2022-11-24T08:41:46.718Z,9.463026
2022-11-24T08:42:47.285Z,9.463016
2022-11-24T08:43:46.693Z,9.462937
2022-11-24T08:44:46.708Z,9.462957
2022-11-24T08:45:46.800Z,9.463120
2022-11-24T08:46:46.708Z,9.463110
2022-11-24T08:47:47.604Z,9.463133
2022-11-24T08:48:46.686Z,9.463066
2022-11-24T08:49:46.673Z,9.462985
2022-11-24T08:50:46.661Z,9.463031
2022-11-24T08:51:46.660Z,9.462984
2022-11-24T08:52:46.685Z,9.463013
2022-11-24T08:53:46.626Z,9.463020
2022-11-24T08:55:07.649Z,9.463030
2022-11-24T08:55:46.657Z,9.463006
2022-11-24T08:56:46.638Z,9.462992
2022-11-24T08:57:47.844Z,9.462974
2022-11-24T08:58:46.692Z,9.462988
2022-11-24T08:59:46.609Z,9.463023
2022-11-24T09:00:46.599Z,9.463054
2022-11-24T09:01:47.108Z,9.463006
2022-11-24T09:02:46.582Z,9.462997
2022-11-24T09:03:51.275Z,9.462990
2022-11-24T09:04:47.346Z,9.463001
2022-11-24T09:05:53.675Z,9.463023
2022-11-24T09:06:47.569Z,9.463034
2022-11-24T09:07:47.549Z,9.463025
2022-11-24T09:08:46.565Z,9.463014
2022-11-24T09:09:46.542Z,9.463031
2022-11-24T09:10:46.528Z,9.463045
2022-11-24T09:11:46.523Z,9.463023
2022-11-24T09:12:46.575Z,9.463015
2022-11-24T09:13:46.955Z,9.462989
2022-11-24T09:14:47.052Z,9.462980
2022-11-24T09:15:46.495Z,9.462998
2022-11-24T09:16:46.568Z,9.463042
2022-11-24T09:17:46.473Z,9.463019
2022-11-24T09:18:47.691Z,9.463011
2022-11-24T09:19:46.479Z,9.463022
2022-11-24T09:20:47.140Z,9.463009
2022-11-24T09:21:46.484Z,9.463014
2022-11-24T09:22:46.447Z,9.463020
2022-11-24T09:23:46.439Z,9.463023
2022-11-24T09:24:46.587Z,9.462988
2022-11-24T09:25:46.431Z,9.463046
2022-11-24T09:26:47.919Z,9.463071
2022-11-24T09:27:46.421Z,9.463002
2022-11-24T09:28:46.400Z,9.463045
2022-11-24T09:29:46.416Z,9.463042
2022-11-24T09:30:46.459Z,9.463044
2022-11-24T09:31:46.392Z,9.462997
2022-11-24T09:32:46.823Z,9.462971
2022-11-24T09:33:46.374Z,9.462906
2022-11-24T09:34:46.377Z,9.462867
2022-11-24T09:35:46.384Z,9.462977
2022-11-24T09:36:46.348Z,9.462983
2022-11-24T09:37:46.366Z,9.463002
2022-11-24T09:38:46.366Z,9.462931
2022-11-24T09:39:46.369Z,9.462886
2022-11-24T09:40:46.364Z,9.462884
2022-11-24T09:41:46.788Z,9.462877
2022-11-24T09:42:53.248Z,9.462859
2022-11-24T09:43:47.321Z,9.462865
2022-11-24T09:44:46.293Z,9.462858
2022-11-24T09:46:05.056Z,9.462825
2022-11-24T09:46:47.703Z,9.462648
2022-11-24T09:47:46.299Z,9.462804
2022-11-24T09:48:46.277Z,9.462877
2022-11-24T09:49:51.105Z,9.462873
2022-11-24T09:50:47.251Z,9.462880
2022-11-24T09:51:46.269Z,9.462944
2022-11-24T09:52:46.245Z,9.462891
2022-11-24T09:53:46.256Z,9.462917
2022-11-24T09:54:46.243Z,9.462984
2022-11-24T09:55:46.530Z,9.462890
2022-11-24T09:56:46.254Z,9.462936
2022-11-24T09:57:46.898Z,9.462957
2022-11-24T09:59:07.202Z,9.462934
2022-11-24T09:59:46.215Z,9.462926
2022-11-24T10:00:46.209Z,9.462922
2022-11-24T10:01:46.277Z,9.462859
2022-11-24T10:02:46.180Z,9.462877
2022-11-24T10:03:46.197Z,9.462835
2022-11-24T10:04:46.331Z,9.462882
2022-11-24T10:05:46.197Z,9.462873
2022-11-24T10:06:46.159Z,9.462912
2022-11-24T10:07:46.201Z,9.462928
2022-11-24T10:08:46.160Z,9.462866
2022-11-24T10:09:46.138Z,9.462872
2022-11-24T10:10:46.143Z,9.462873
2022-11-24T10:11:46.131Z,9.462939
2022-11-24T10:12:46.129Z,9.462935
2022-11-24T10:13:46.137Z,9.462909
2022-11-24T10:14:46.105Z,9.462931
2022-11-24T10:15:46.233Z,9.462918
2022-11-24T10:16:46.081Z,9.462851
2022-11-24T10:17:46.096Z,9.462923
2022-11-24T10:18:46.092Z,9.462906
2022-11-24T10:19:46.062Z,9.462892
2022-11-24T10:20:46.075Z,9.462927
2022-11-24T10:21:46.968Z,9.462949
2022-11-24T10:22:48.260Z,9.462949
2022-11-24T10:23:46.075Z,9.462984
2022-11-24T10:24:46.030Z,9.462949
2022-11-24T10:25:46.032Z,9.462932
2022-11-24T10:26:46.017Z,9.462954
2022-11-24T10:27:46.009Z,9.462950
2022-11-24T10:28:46.026Z,9.462966
2022-11-24T10:29:46.026Z,9.462954
2022-11-24T10:30:46.049Z,9.462956
2022-11-24T10:31:46.000Z,9.462935
2022-11-24T10:32:45.977Z,9.462919
2022-11-24T10:33:45.970Z,9.462958
2022-11-24T10:34:45.959Z,9.462929
2022-11-24T10:35:45.970Z,9.462934
2022-11-24T10:36:45.942Z,9.462950
2022-11-24T10:37:45.953Z,9.462966
2022-11-24T10:38:45.953Z,9.462896
2022-11-24T10:39:45.935Z,9.462938
2022-11-24T10:40:56.948Z,9.462895
2022-11-24T10:41:46.910Z,9.462863
2022-11-24T10:42:45.925Z,9.462975
2022-11-24T10:43:45.907Z,9.462975
2022-11-24T10:44:45.931Z,9.463016
2022-11-24T10:45:45.894Z,9.462988
2022-11-24T10:46:45.947Z,9.462956
2022-11-24T10:47:45.867Z,9.462921
2022-11-24T10:48:46.816Z,9.462900
2022-11-24T10:49:45.854Z,9.462902
2022-11-24T10:50:45.842Z,9.462934
2022-11-24T10:51:45.858Z,9.462968
2022-11-24T10:52:45.827Z,9.462898
2022-11-24T10:53:45.856Z,9.462944
2022-11-24T10:54:45.822Z,9.463009
2022-11-24T10:55:45.811Z,9.463018
2022-11-24T10:56:45.839Z,9.463047
2022-11-24T10:57:45.800Z,9.462944
2022-11-24T10:58:45.783Z,9.463097
2022-11-24T10:59:45.801Z,9.462873
2022-11-24T11:00:45.790Z,9.462942
2022-11-24T11:01:45.802Z,9.462914
2022-11-24T11:02:45.933Z,9.463018
2022-11-24T11:03:47.731Z,9.462972
2022-11-24T11:04:45.738Z,9.462936
2022-11-24T11:05:45.749Z,9.462987
2022-11-24T11:06:45.781Z,9.463079
2022-11-24T11:07:45.799Z,9.462981
2022-11-24T11:08:45.723Z,9.462996
2022-11-24T11:09:45.728Z,9.463027
2022-11-24T11:10:45.705Z,9.463009
2022-11-24T11:11:45.705Z,9.462998
2022-11-24T11:12:45.873Z,9.463006
2022-11-24T11:13:45.692Z,9.462990
2022-11-24T11:14:45.689Z,9.462947
2022-11-24T11:15:45.743Z,9.462955
2022-11-24T11:16:45.718Z,9.462980
2022-11-24T11:17:45.653Z,9.462993
2022-11-24T11:18:45.660Z,9.462974
2022-11-24T11:20:00.089Z,9.462948
2022-11-24T11:20:46.643Z,9.462996
2022-11-24T11:21:46.177Z,9.463002
2022-11-24T11:22:45.613Z,9.462973
2022-11-24T11:23:45.632Z,9.463116
2022-11-24T11:24:45.616Z,9.463100
2022-11-24T11:25:45.743Z,9.463010
2022-11-24T11:26:47.541Z,9.462988
2022-11-24T11:27:45.588Z,9.463030
2022-11-24T11:28:45.590Z,9.463005
2022-11-24T11:34:02.799Z,9.463056
2022-11-24T11:34:23.208Z,9.463036
2022-11-24T11:34:46.540Z,9.463011
2022-11-24T11:35:45.530Z,9.463002
2022-11-24T11:36:45.512Z,9.463028
2022-11-24T11:37:45.524Z,9.463090
2022-11-24T11:38:45.939Z,9.463039
2022-11-24T11:39:48.890Z,9.463031
2022-11-24T11:40:45.500Z,9.463137
2022-11-24T11:41:45.487Z,9.463269
2022-11-24T11:43:02.534Z,9.463260
2022-11-24T11:43:47.452Z,9.463142
2022-11-24T11:44:45.456Z,9.462938
2022-11-24T11:45:45.534Z,9.462992
2022-11-24T11:46:45.500Z,9.463061
2022-11-24T11:47:45.443Z,9.462947